sensor_id;sensor_type;location;lat;lon;timestamp;temperature;humidity
26964;DHT22;14521;48.148;-1.656;2022-08-03T00:01:29;25.90;90.90
26964;DHT22;14521;48.148;-1.656;2022-08-03T00:04:51;26.00;91.00
26964;DHT22;14521;48.148;-1.656;2022-08-03T00:08:14;26.00;90.90
26964;DHT22;14521;48.148;-1.656;2022-08-03T00:11:40;26.00;90.80
26964;DHT22;14521;48.148;-1.656;2022-08-03T00:15:03;26.00;90.70
26964;DHT22;14521;48.148;-1.656;2022-08-03T00:18:31;26.00;90.70
26964;DHT22;14521;48.148;-1.656;2022-08-03T00:21:53;26.00;90.70
26964;DHT22;14521;48.148;-1.656;2022-08-03T00:25:16;26.00;90.60
26964;DHT22;14521;48.148;-1.656;2022-08-03T00:28:39;26.00;90.60
26964;DHT22;14521;48.148;-1.656;2022-08-03T00:32:01;26.00;90.50
26964;DHT22;14521;48.148;-1.656;2022-08-03T00:35:23;26.00;90.50
26964;DHT22;14521;48.148;-1.656;2022-08-03T00:39:06;26.00;90.50
26964;DHT22;14521;48.148;-1.656;2022-08-03T00:42:28;26.10;90.90
26964;DHT22;14521;48.148;-1.656;2022-08-03T00:45:50;26.10;90.50
26964;DHT22;14521;48.148;-1.656;2022-08-03T00:49:13;26.10;90.50
26964;DHT22;14521;48.148;-1.656;2022-08-03T00:52:36;26.10;90.40
26964;DHT22;14521;48.148;-1.656;2022-08-03T00:55:58;26.10;90.40
26964;DHT22;14521;48.148;-1.656;2022-08-03T00:59:20;26.10;90.40
26964;DHT22;14521;48.148;-1.656;2022-08-03T01:02:43;26.10;90.40
26964;DHT22;14521;48.148;-1.656;2022-08-03T01:06:16;26.10;90.40
26964;DHT22;14521;48.148;-1.656;2022-08-03T01:10:05;26.10;90.30
26964;DHT22;14521;48.148;-1.656;2022-08-03T01:17:35;26.10;90.30
26964;DHT22;14521;48.148;-1.656;2022-08-03T01:21:08;26.10;90.30
26964;DHT22;14521;48.148;-1.656;2022-08-03T01:24:43;26.10;90.20
26964;DHT22;14521;48.148;-1.656;2022-08-03T01:28:21;26.10;90.20
26964;DHT22;14521;48.148;-1.656;2022-08-03T01:31:57;26.10;90.20
26964;DHT22;14521;48.148;-1.656;2022-08-03T01:35:43;26.10;90.10
26964;DHT22;14521;48.148;-1.656;2022-08-03T01:39:06;26.10;90.10
26964;DHT22;14521;48.148;-1.656;2022-08-03T01:42:31;26.10;90.10
26964;DHT22;14521;48.148;-1.656;2022-08-03T01:45:55;26.10;90.10
26964;DHT22;14521;48.148;-1.656;2022-08-03T01:49:18;26.10;90.00
26964;DHT22;14521;48.148;-1.656;2022-08-03T01:52:42;26.10;90.00
26964;DHT22;14521;48.148;-1.656;2022-08-03T01:56:05;26.10;90.00
26964;DHT22;14521;48.148;-1.656;2022-08-03T01:59:28;26.10;90.00
26964;DHT22;14521;48.148;-1.656;2022-08-03T02:02:53;26.10;90.00
26964;DHT22;14521;48.148;-1.656;2022-08-03T02:06:19;26.10;90.00
26964;DHT22;14521;48.148;-1.656;2022-08-03T02:10:05;26.10;89.90
26964;DHT22;14521;48.148;-1.656;2022-08-03T02:13:29;26.20;89.90
26964;DHT22;14521;48.148;-1.656;2022-08-03T02:16:54;26.20;90.30
26964;DHT22;14521;48.148;-1.656;2022-08-03T02:20:18;26.10;89.80
26964;DHT22;14521;48.148;-1.656;2022-08-03T02:23:41;26.20;89.80
26964;DHT22;14521;48.148;-1.656;2022-08-03T02:27:09;26.20;89.80
26964;DHT22;14521;48.148;-1.656;2022-08-03T02:30:37;26.20;89.80
26964;DHT22;14521;48.148;-1.656;2022-08-03T02:34:03;26.20;89.90
26964;DHT22;14521;48.148;-1.656;2022-08-03T02:37:33;26.20;89.70
26964;DHT22;14521;48.148;-1.656;2022-08-03T02:40:57;26.20;89.70
26964;DHT22;14521;48.148;-1.656;2022-08-03T02:44:24;26.20;89.70
26964;DHT22;14521;48.148;-1.656;2022-08-03T02:47:48;26.20;89.70
26964;DHT22;14521;48.148;-1.656;2022-08-03T02:51:18;26.20;89.70
26964;DHT22;14521;48.148;-1.656;2022-08-03T02:54:42;26.20;89.70
26964;DHT22;14521;48.148;-1.656;2022-08-03T02:58:05;26.20;89.60
26964;DHT22;14521;48.148;-1.656;2022-08-03T03:01:29;26.20;89.70
26964;DHT22;14521;48.148;-1.656;2022-08-03T03:04:54;26.20;89.70
26964;DHT22;14521;48.148;-1.656;2022-08-03T03:08:36;26.30;89.70
26964;DHT22;14521;48.148;-1.656;2022-08-03T03:12:01;26.20;89.70
26964;DHT22;14521;48.148;-1.656;2022-08-03T03:15:26;26.20;89.60
26964;DHT22;14521;48.148;-1.656;2022-08-03T03:18:49;26.20;89.70
26964;DHT22;14521;48.148;-1.656;2022-08-03T03:22:13;26.20;89.70
26964;DHT22;14521;48.148;-1.656;2022-08-03T03:25:37;26.20;89.70
26964;DHT22;14521;48.148;-1.656;2022-08-03T03:29:00;26.20;89.60
26964;DHT22;14521;48.148;-1.656;2022-08-03T03:32:25;26.20;89.60
26964;DHT22;14521;48.148;-1.656;2022-08-03T03:35:48;26.20;89.50
26964;DHT22;14521;48.148;-1.656;2022-08-03T03:39:11;26.20;89.50
26964;DHT22;14521;48.148;-1.656;2022-08-03T03:42:37;26.20;89.50
26964;DHT22;14521;48.148;-1.656;2022-08-03T03:45:59;26.20;89.50
26964;DHT22;14521;48.148;-1.656;2022-08-03T03:49:22;26.20;89.50
26964;DHT22;14521;48.148;-1.656;2022-08-03T03:52:44;26.20;89.50
26964;DHT22;14521;48.148;-1.656;2022-08-03T03:56:07;26.30;89.60
26964;DHT22;14521;48.148;-1.656;2022-08-03T03:59:29;26.20;89.50
26964;DHT22;14521;48.148;-1.656;2022-08-03T04:02:54;26.30;89.50
26964;DHT22;14521;48.148;-1.656;2022-08-03T04:06:17;26.20;89.50
26964;DHT22;14521;48.148;-1.656;2022-08-03T04:09:59;26.20;89.50
26964;DHT22;14521;48.148;-1.656;2022-08-03T04:13:46;26.20;89.60
26964;DHT22;14521;48.148;-1.656;2022-08-03T04:17:11;26.20;89.60
26964;DHT22;14521;48.148;-1.656;2022-08-03T04:20:37;26.30;89.70
26964;DHT22;14521;48.148;-1.656;2022-08-03T04:24:02;26.20;89.60
26964;DHT22;14521;48.148;-1.656;2022-08-03T04:27:33;26.20;89.50
26964;DHT22;14521;48.148;-1.656;2022-08-03T04:30:58;26.20;89.60
26964;DHT22;14521;48.148;-1.656;2022-08-03T04:34:22;26.20;89.50
26964;DHT22;14521;48.148;-1.656;2022-08-03T04:37:49;26.20;89.50
26964;DHT22;14521;48.148;-1.656;2022-08-03T04:41:13;26.20;89.70
26964;DHT22;14521;48.148;-1.656;2022-08-03T04:44:38;26.20;89.60
26964;DHT22;14521;48.148;-1.656;2022-08-03T04:48:02;26.30;89.60
26964;DHT22;14521;48.148;-1.656;2022-08-03T04:51:25;26.30;89.60
26964;DHT22;14521;48.148;-1.656;2022-08-03T04:54:47;26.20;89.50
26964;DHT22;14521;48.148;-1.656;2022-08-03T04:58:11;26.20;89.50
26964;DHT22;14521;48.148;-1.656;2022-08-03T05:01:34;26.20;89.50
26964;DHT22;14521;48.148;-1.656;2022-08-03T05:04:56;26.30;89.60
26964;DHT22;14521;48.148;-1.656;2022-08-03T05:08:19;26.20;89.50
26964;DHT22;14521;48.148;-1.656;2022-08-03T05:11:49;26.20;89.50
26964;DHT22;14521;48.148;-1.656;2022-08-03T05:15:11;26.20;89.50
26964;DHT22;14521;48.148;-1.656;2022-08-03T05:18:34;26.20;89.50
26964;DHT22;14521;48.148;-1.656;2022-08-03T05:21:57;26.20;89.50
26964;DHT22;14521;48.148;-1.656;2022-08-03T05:25:20;26.20;89.60
26964;DHT22;14521;48.148;-1.656;2022-08-03T05:28:48;26.20;89.50
26964;DHT22;14521;48.148;-1.656;2022-08-03T05:32:12;26.20;89.70
26964;DHT22;14521;48.148;-1.656;2022-08-03T05:35:36;26.20;89.60
26964;DHT22;14521;48.148;-1.656;2022-08-03T05:39:20;26.30;89.60
26964;DHT22;14521;48.148;-1.656;2022-08-03T05:42:42;26.20;89.60
26964;DHT22;14521;48.148;-1.656;2022-08-03T05:46:04;26.20;89.50
26964;DHT22;14521;48.148;-1.656;2022-08-03T05:49:33;26.20;89.50
26964;DHT22;14521;48.148;-1.656;2022-08-03T05:52:55;26.30;89.80
26964;DHT22;14521;48.148;-1.656;2022-08-03T05:56:22;26.30;89.50
26964;DHT22;14521;48.148;-1.656;2022-08-03T05:59:45;26.30;89.60
26964;DHT22;14521;48.148;-1.656;2022-08-03T06:03:18;26.30;89.50
26964;DHT22;14521;48.148;-1.656;2022-08-03T06:06:43;26.30;89.40
26964;DHT22;14521;48.148;-1.656;2022-08-03T06:10:06;26.30;89.50
26964;DHT22;14521;48.148;-1.656;2022-08-03T06:13:48;26.30;89.40
26964;DHT22;14521;48.148;-1.656;2022-08-03T06:17:10;26.30;89.50
26964;DHT22;14521;48.148;-1.656;2022-08-03T06:20:33;26.30;89.50
26964;DHT22;14521;48.148;-1.656;2022-08-03T06:23:56;26.30;89.50
26964;DHT22;14521;48.148;-1.656;2022-08-03T06:27:18;26.30;89.60
26964;DHT22;14521;48.148;-1.656;2022-08-03T06:30:48;26.30;89.50
26964;DHT22;14521;48.148;-1.656;2022-08-03T06:34:11;26.30;89.60
26964;DHT22;14521;48.148;-1.656;2022-08-03T06:37:53;26.30;89.60
26964;DHT22;14521;48.148;-1.656;2022-08-03T06:41:16;26.30;89.60
26964;DHT22;14521;48.148;-1.656;2022-08-03T06:44:38;26.30;89.40
26964;DHT22;14521;48.148;-1.656;2022-08-03T06:48:11;26.30;89.50
26964;DHT22;14521;48.148;-1.656;2022-08-03T06:51:34;26.30;89.50
26964;DHT22;14521;48.148;-1.656;2022-08-03T06:55:16;26.30;89.40
26964;DHT22;14521;48.148;-1.656;2022-08-03T06:58:38;26.30;89.40
26964;DHT22;14521;48.148;-1.656;2022-08-03T07:02:01;26.30;89.40
26964;DHT22;14521;48.148;-1.656;2022-08-03T07:05:23;26.30;89.40
26964;DHT22;14521;48.148;-1.656;2022-08-03T07:08:46;26.30;89.40
26964;DHT22;14521;48.148;-1.656;2022-08-03T07:12:13;26.40;89.60
26964;DHT22;14521;48.148;-1.656;2022-08-03T07:15:36;26.30;89.40
26964;DHT22;14521;48.148;-1.656;2022-08-03T07:19:16;26.40;89.50
26964;DHT22;14521;48.148;-1.656;2022-08-03T07:22:39;26.40;89.40
26964;DHT22;14521;48.148;-1.656;2022-08-03T07:26:01;26.40;89.40
26964;DHT22;14521;48.148;-1.656;2022-08-03T07:29:24;26.40;89.30
26964;DHT22;14521;48.148;-1.656;2022-08-03T07:32:46;26.40;89.10
26964;DHT22;14521;48.148;-1.656;2022-08-03T07:36:11;26.50;88.90
26964;DHT22;14521;48.148;-1.656;2022-08-03T07:39:33;26.50;88.90
26964;DHT22;14521;48.148;-1.656;2022-08-03T07:42:56;26.50;89.10
26964;DHT22;14521;48.148;-1.656;2022-08-03T07:46:19;26.50;89.20
26964;DHT22;14521;48.148;-1.656;2022-08-03T07:49:41;26.60;89.20
26964;DHT22;14521;48.148;-1.656;2022-08-03T07:53:03;26.60;89.10
26964;DHT22;14521;48.148;-1.656;2022-08-03T07:56:26;26.60;89.80
26964;DHT22;14521;48.148;-1.656;2022-08-03T07:59:49;26.70;90.10
26964;DHT22;14521;48.148;-1.656;2022-08-03T08:03:32;26.70;90.10
26964;DHT22;14521;48.148;-1.656;2022-08-03T08:07:14;26.80;90.40
26964;DHT22;14521;48.148;-1.656;2022-08-03T08:10:36;26.70;90.30
26964;DHT22;14521;48.148;-1.656;2022-08-03T08:13:59;26.80;90.60
26964;DHT22;14521;48.148;-1.656;2022-08-03T08:17:23;26.80;90.70
26964;DHT22;14521;48.148;-1.656;2022-08-03T08:20:46;26.80;91.30
26964;DHT22;14521;48.148;-1.656;2022-08-03T08:24:09;26.80;91.60
26964;DHT22;14521;48.148;-1.656;2022-08-03T08:27:48;26.80;91.80
26964;DHT22;14521;48.148;-1.656;2022-08-03T08:31:30;26.90;91.10
26964;DHT22;14521;48.148;-1.656;2022-08-03T08:34:52;26.90;91.20
26964;DHT22;14521;48.148;-1.656;2022-08-03T08:38:15;26.90;91.00
26964;DHT22;14521;48.148;-1.656;2022-08-03T08:41:37;26.90;91.00
26964;DHT22;14521;48.148;-1.656;2022-08-03T08:45:08;26.90;91.10
26964;DHT22;14521;48.148;-1.656;2022-08-03T08:48:33;26.90;91.40
26964;DHT22;14521;48.148;-1.656;2022-08-03T08:51:57;26.90;91.40
26964;DHT22;14521;48.148;-1.656;2022-08-03T08:55:22;26.90;91.40
26964;DHT22;14521;48.148;-1.656;2022-08-03T08:58:51;26.90;91.60
26964;DHT22;14521;48.148;-1.656;2022-08-03T09:02:14;26.90;90.70
26964;DHT22;14521;48.148;-1.656;2022-08-03T09:05:36;26.90;91.20
26964;DHT22;14521;48.148;-1.656;2022-08-03T09:09:17;26.90;91.20
26964;DHT22;14521;48.148;-1.656;2022-08-03T09:12:59;26.90;91.30
26964;DHT22;14521;48.148;-1.656;2022-08-03T09:16:22;26.90;91.40
26964;DHT22;14521;48.148;-1.656;2022-08-03T09:20:05;26.90;91.40
26964;DHT22;14521;48.148;-1.656;2022-08-03T09:23:47;26.90;91.70
26964;DHT22;14521;48.148;-1.656;2022-08-03T09:27:24;26.90;91.70
26964;DHT22;14521;48.148;-1.656;2022-08-03T09:30:59;26.90;91.90
26964;DHT22;14521;48.148;-1.656;2022-08-03T09:34:24;26.90;91.60
26964;DHT22;14521;48.148;-1.656;2022-08-03T09:38:08;26.90;91.60
26964;DHT22;14521;48.148;-1.656;2022-08-03T09:41:36;26.90;91.90
26964;DHT22;14521;48.148;-1.656;2022-08-03T09:44:59;26.90;91.40
26964;DHT22;14521;48.148;-1.656;2022-08-03T09:48:28;27.00;91.40
26964;DHT22;14521;48.148;-1.656;2022-08-03T09:51:52;27.00;91.50
26964;DHT22;14521;48.148;-1.656;2022-08-03T09:55:34;27.00;91.10
26964;DHT22;14521;48.148;-1.656;2022-08-03T09:59:28;27.00;91.80
26964;DHT22;14521;48.148;-1.656;2022-08-03T10:03:03;27.10;91.80
26964;DHT22;14521;48.148;-1.656;2022-08-03T10:06:25;27.10;92.20
26964;DHT22;14521;48.148;-1.656;2022-08-03T10:13:18;27.00;92.50
26964;DHT22;14521;48.148;-1.656;2022-08-03T10:16:41;27.10;92.20
26964;DHT22;14521;48.148;-1.656;2022-08-03T10:20:04;27.10;91.70
26964;DHT22;14521;48.148;-1.656;2022-08-03T10:23:28;27.00;91.60
26964;DHT22;14521;48.148;-1.656;2022-08-03T10:27:03;27.00;91.10
26964;DHT22;14521;48.148;-1.656;2022-08-03T10:30:27;27.00;91.10
26964;DHT22;14521;48.148;-1.656;2022-08-03T10:33:51;27.00;91.00
26964;DHT22;14521;48.148;-1.656;2022-08-03T10:37:16;27.00;90.80
26964;DHT22;14521;48.148;-1.656;2022-08-03T10:40:40;27.00;90.80
26964;DHT22;14521;48.148;-1.656;2022-08-03T10:44:18;27.00;90.90
26964;DHT22;14521;48.148;-1.656;2022-08-03T10:47:41;27.00;90.80
26964;DHT22;14521;48.148;-1.656;2022-08-03T10:51:04;27.00;90.80
26964;DHT22;14521;48.148;-1.656;2022-08-03T10:54:44;27.00;90.80
26964;DHT22;14521;48.148;-1.656;2022-08-03T10:58:50;27.00;90.80
26964;DHT22;14521;48.148;-1.656;2022-08-03T11:02:19;27.00;90.80
26964;DHT22;14521;48.148;-1.656;2022-08-03T11:05:43;27.00;91.00
26964;DHT22;14521;48.148;-1.656;2022-08-03T11:12:32;26.90;91.20
26964;DHT22;14521;48.148;-1.656;2022-08-03T11:15:56;27.00;91.40
26964;DHT22;14521;48.148;-1.656;2022-08-03T11:19:45;27.00;91.20
26964;DHT22;14521;48.148;-1.656;2022-08-03T11:23:39;27.00;91.00
26964;DHT22;14521;48.148;-1.656;2022-08-03T11:27:29;27.00;90.90
26964;DHT22;14521;48.148;-1.656;2022-08-03T11:30:51;27.00;91.10
26964;DHT22;14521;48.148;-1.656;2022-08-03T11:34:14;27.00;90.90
26964;DHT22;14521;48.148;-1.656;2022-08-03T11:41:32;27.00;90.80
26964;DHT22;14521;48.148;-1.656;2022-08-03T11:45:07;27.00;91.00
26964;DHT22;14521;48.148;-1.656;2022-08-03T11:51:55;27.00;90.80
26964;DHT22;14521;48.148;-1.656;2022-08-03T11:55:18;27.00;90.90
26964;DHT22;14521;48.148;-1.656;2022-08-03T11:58:46;27.00;90.90
26964;DHT22;14521;48.148;-1.656;2022-08-03T12:02:33;27.00;90.90
26964;DHT22;14521;48.148;-1.656;2022-08-03T12:05:55;27.00;90.80
26964;DHT22;14521;48.148;-1.656;2022-08-03T12:09:18;27.00;90.80
26964;DHT22;14521;48.148;-1.656;2022-08-03T12:12:42;27.00;90.80
26964;DHT22;14521;48.148;-1.656;2022-08-03T12:16:07;27.00;90.80
26964;DHT22;14521;48.148;-1.656;2022-08-03T12:19:41;27.00;90.70
26964;DHT22;14521;48.148;-1.656;2022-08-03T12:23:05;27.00;90.70
26964;DHT22;14521;48.148;-1.656;2022-08-03T12:26:28;27.00;90.50
26964;DHT22;14521;48.148;-1.656;2022-08-03T12:29:55;27.00;90.50
26964;DHT22;14521;48.148;-1.656;2022-08-03T12:33:24;27.00;90.70
26964;DHT22;14521;48.148;-1.656;2022-08-03T12:36:51;27.00;90.90
26964;DHT22;14521;48.148;-1.656;2022-08-03T12:40:14;27.00;90.90
26964;DHT22;14521;48.148;-1.656;2022-08-03T12:43:49;27.00;90.80
26964;DHT22;14521;48.148;-1.656;2022-08-03T12:47:12;27.00;90.80
26964;DHT22;14521;48.148;-1.656;2022-08-03T12:50:36;27.00;90.80
26964;DHT22;14521;48.148;-1.656;2022-08-03T12:53:59;27.00;90.50
26964;DHT22;14521;48.148;-1.656;2022-08-03T12:57:21;27.00;90.70
26964;DHT22;14521;48.148;-1.656;2022-08-03T13:00:54;27.00;90.70
26964;DHT22;14521;48.148;-1.656;2022-08-03T13:04:34;27.00;90.60
26964;DHT22;14521;48.148;-1.656;2022-08-03T13:07:57;27.00;90.60
26964;DHT22;14521;48.148;-1.656;2022-08-03T13:11:24;27.00;90.70
26964;DHT22;14521;48.148;-1.656;2022-08-03T13:15:07;27.00;90.60
26964;DHT22;14521;48.148;-1.656;2022-08-03T13:18:29;27.00;90.70
26964;DHT22;14521;48.148;-1.656;2022-08-03T13:21:53;27.00;90.80
26964;DHT22;14521;48.148;-1.656;2022-08-03T13:25:25;27.00;90.70
26964;DHT22;14521;48.148;-1.656;2022-08-03T13:28:47;27.00;90.70
26964;DHT22;14521;48.148;-1.656;2022-08-03T13:32:10;27.00;90.60
26964;DHT22;14521;48.148;-1.656;2022-08-03T13:35:33;27.10;90.60
26964;DHT22;14521;48.148;-1.656;2022-08-03T13:38:55;27.10;90.70
26964;DHT22;14521;48.148;-1.656;2022-08-03T13:42:17;27.00;90.60
26964;DHT22;14521;48.148;-1.656;2022-08-03T13:45:40;27.00;90.60
26964;DHT22;14521;48.148;-1.656;2022-08-03T13:49:08;27.00;90.50
26964;DHT22;14521;48.148;-1.656;2022-08-03T13:52:32;27.00;90.40
26964;DHT22;14521;48.148;-1.656;2022-08-03T13:55:55;27.00;90.40
26964;DHT22;14521;48.148;-1.656;2022-08-03T13:59:21;27.00;90.30
26964;DHT22;14521;48.148;-1.656;2022-08-03T14:02:43;27.10;90.30
26964;DHT22;14521;48.148;-1.656;2022-08-03T14:06:06;27.10;90.20
26964;DHT22;14521;48.148;-1.656;2022-08-03T14:09:28;27.10;90.10
26964;DHT22;14521;48.148;-1.656;2022-08-03T14:12:50;27.10;90.00
26964;DHT22;14521;48.148;-1.656;2022-08-03T14:16:13;27.10;90.00
26964;DHT22;14521;48.148;-1.656;2022-08-03T14:19:38;27.10;89.90
26964;DHT22;14521;48.148;-1.656;2022-08-03T14:23:15;27.10;89.60
26964;DHT22;14521;48.148;-1.656;2022-08-03T14:26:37;27.10;89.30
26964;DHT22;14521;48.148;-1.656;2022-08-03T14:29:59;27.10;89.20
26964;DHT22;14521;48.148;-1.656;2022-08-03T14:33:22;27.10;89.10
26964;DHT22;14521;48.148;-1.656;2022-08-03T14:36:45;27.10;89.00
26964;DHT22;14521;48.148;-1.656;2022-08-03T14:40:08;27.10;88.80
26964;DHT22;14521;48.148;-1.656;2022-08-03T14:43:31;27.10;88.80
26964;DHT22;14521;48.148;-1.656;2022-08-03T14:46:55;27.10;88.70
26964;DHT22;14521;48.148;-1.656;2022-08-03T14:50:17;27.10;88.70
26964;DHT22;14521;48.148;-1.656;2022-08-03T14:53:59;27.10;88.50
26964;DHT22;14521;48.148;-1.656;2022-08-03T14:57:22;27.10;88.50
26964;DHT22;14521;48.148;-1.656;2022-08-03T15:00:44;27.10;88.40
26964;DHT22;14521;48.148;-1.656;2022-08-03T15:04:06;27.10;88.30
26964;DHT22;14521;48.148;-1.656;2022-08-03T15:07:28;27.10;88.40
26964;DHT22;14521;48.148;-1.656;2022-08-03T15:10:52;27.10;88.20
26964;DHT22;14521;48.148;-1.656;2022-08-03T15:14:15;27.10;88.10
26964;DHT22;14521;48.148;-1.656;2022-08-03T15:17:37;27.10;88.20
26964;DHT22;14521;48.148;-1.656;2022-08-03T15:21:19;27.10;88.20
26964;DHT22;14521;48.148;-1.656;2022-08-03T15:25:03;27.10;88.40
26964;DHT22;14521;48.148;-1.656;2022-08-03T15:28:45;27.10;88.40
26964;DHT22;14521;48.148;-1.656;2022-08-03T15:32:07;27.20;88.60
26964;DHT22;14521;48.148;-1.656;2022-08-03T15:35:30;27.20;88.70
26964;DHT22;14521;48.148;-1.656;2022-08-03T15:38:53;27.10;88.70
26964;DHT22;14521;48.148;-1.656;2022-08-03T15:42:16;27.20;88.80
26964;DHT22;14521;48.148;-1.656;2022-08-03T15:45:38;27.20;88.70
26964;DHT22;14521;48.148;-1.656;2022-08-03T15:49:03;27.20;88.90
26964;DHT22;14521;48.148;-1.656;2022-08-03T15:52:25;27.20;89.70
26964;DHT22;14521;48.148;-1.656;2022-08-03T15:55:47;27.20;89.20
26964;DHT22;14521;48.148;-1.656;2022-08-03T15:59:10;27.20;89.20
26964;DHT22;14521;48.148;-1.656;2022-08-03T16:02:35;27.20;89.20
26964;DHT22;14521;48.148;-1.656;2022-08-03T16:05:57;27.20;89.30
26964;DHT22;14521;48.148;-1.656;2022-08-03T16:09:19;27.20;89.30
26964;DHT22;14521;48.148;-1.656;2022-08-03T16:13:02;27.20;89.40
26964;DHT22;14521;48.148;-1.656;2022-08-03T16:16:24;27.20;89.40
26964;DHT22;14521;48.148;-1.656;2022-08-03T16:19:47;27.30;89.40
26964;DHT22;14521;48.148;-1.656;2022-08-03T16:23:09;27.20;89.40
26964;DHT22;14521;48.148;-1.656;2022-08-03T16:26:35;27.20;89.40
26964;DHT22;14521;48.148;-1.656;2022-08-03T16:29:57;27.20;89.40
26964;DHT22;14521;48.148;-1.656;2022-08-03T16:33:19;27.20;89.30
26964;DHT22;14521;48.148;-1.656;2022-08-03T16:36:42;27.20;89.40
26964;DHT22;14521;48.148;-1.656;2022-08-03T16:40:06;27.20;89.40
26964;DHT22;14521;48.148;-1.656;2022-08-03T16:43:40;27.20;89.50
26964;DHT22;14521;48.148;-1.656;2022-08-03T16:47:02;27.30;89.60
26964;DHT22;14521;48.148;-1.656;2022-08-03T16:50:24;27.30;89.40
26964;DHT22;14521;48.148;-1.656;2022-08-03T16:53:46;27.30;89.50
26964;DHT22;14521;48.148;-1.656;2022-08-03T16:57:29;27.30;89.70
26964;DHT22;14521;48.148;-1.656;2022-08-03T17:01:14;27.30;89.40
26964;DHT22;14521;48.148;-1.656;2022-08-03T17:04:45;27.20;89.40
26964;DHT22;14521;48.148;-1.656;2022-08-03T17:08:08;27.30;89.30
26964;DHT22;14521;48.148;-1.656;2022-08-03T17:11:33;27.20;89.30
26964;DHT22;14521;48.148;-1.656;2022-08-03T17:14:57;27.20;89.30
26964;DHT22;14521;48.148;-1.656;2022-08-03T17:18:22;27.30;89.30
26964;DHT22;14521;48.148;-1.656;2022-08-03T17:21:55;27.20;89.20
26964;DHT22;14521;48.148;-1.656;2022-08-03T17:25:21;27.30;88.90
26964;DHT22;14521;48.148;-1.656;2022-08-03T17:29:04;27.20;88.90
26964;DHT22;14521;48.148;-1.656;2022-08-03T17:32:34;27.30;89.20
26964;DHT22;14521;48.148;-1.656;2022-08-03T17:36:03;27.30;89.10
26964;DHT22;14521;48.148;-1.656;2022-08-03T17:39:26;27.20;89.00
26964;DHT22;14521;48.148;-1.656;2022-08-03T17:43:08;27.20;88.90
26964;DHT22;14521;48.148;-1.656;2022-08-03T17:46:50;27.30;88.80
26964;DHT22;14521;48.148;-1.656;2022-08-03T17:50:14;27.20;88.70
26964;DHT22;14521;48.148;-1.656;2022-08-03T17:54:04;27.30;88.60
26964;DHT22;14521;48.148;-1.656;2022-08-03T17:57:58;27.30;88.60
26964;DHT22;14521;48.148;-1.656;2022-08-03T18:01:48;27.30;88.40
26964;DHT22;14521;48.148;-1.656;2022-08-03T18:05:56;27.30;88.40
26964;DHT22;14521;48.148;-1.656;2022-08-03T18:09:34;27.30;88.40
26964;DHT22;14521;48.148;-1.656;2022-08-03T18:13:39;27.30;88.40
26964;DHT22;14521;48.148;-1.656;2022-08-03T18:17:05;27.30;88.30
26964;DHT22;14521;48.148;-1.656;2022-08-03T18:20:32;27.30;88.40
26964;DHT22;14521;48.148;-1.656;2022-08-03T18:24:03;27.30;88.40
26964;DHT22;14521;48.148;-1.656;2022-08-03T18:27:26;27.30;88.40
26964;DHT22;14521;48.148;-1.656;2022-08-03T18:31:04;27.30;88.40
26964;DHT22;14521;48.148;-1.656;2022-08-03T18:34:29;27.30;88.40
26964;DHT22;14521;48.148;-1.656;2022-08-03T18:37:55;27.30;88.40
26964;DHT22;14521;48.148;-1.656;2022-08-03T18:41:21;27.30;88.40
26964;DHT22;14521;48.148;-1.656;2022-08-03T18:44:54;27.30;88.40
26964;DHT22;14521;48.148;-1.656;2022-08-03T18:48:48;27.30;88.40
26964;DHT22;14521;48.148;-1.656;2022-08-03T18:52:21;27.30;88.40
26964;DHT22;14521;48.148;-1.656;2022-08-03T18:56:42;27.20;88.30
26964;DHT22;14521;48.148;-1.656;2022-08-03T19:00:19;27.20;88.40
26964;DHT22;14521;48.148;-1.656;2022-08-03T19:04:08;27.20;88.30
26964;DHT22;14521;48.148;-1.656;2022-08-03T19:07:33;27.20;88.30
26964;DHT22;14521;48.148;-1.656;2022-08-03T19:11:01;27.20;88.20
26964;DHT22;14521;48.148;-1.656;2022-08-03T19:14:33;27.20;88.20
26964;DHT22;14521;48.148;-1.656;2022-08-03T19:18:01;27.20;88.20
26964;DHT22;14521;48.148;-1.656;2022-08-03T19:21:33;27.30;88.20
26964;DHT22;14521;48.148;-1.656;2022-08-03T19:25:01;27.20;88.20
26964;DHT22;14521;48.148;-1.656;2022-08-03T19:28:24;27.20;88.10
26964;DHT22;14521;48.148;-1.656;2022-08-03T19:31:51;27.30;88.00
26964;DHT22;14521;48.148;-1.656;2022-08-03T19:35:21;27.30;88.10
26964;DHT22;14521;48.148;-1.656;2022-08-03T19:39:04;27.20;88.00
26964;DHT22;14521;48.148;-1.656;2022-08-03T19:42:51;27.20;87.90
26964;DHT22;14521;48.148;-1.656;2022-08-03T19:46:16;27.30;87.90
26964;DHT22;14521;48.148;-1.656;2022-08-03T19:49:40;27.30;88.10
26964;DHT22;14521;48.148;-1.656;2022-08-03T19:53:26;27.20;87.70
26964;DHT22;14521;48.148;-1.656;2022-08-03T19:56:57;27.20;87.70
26964;DHT22;14521;48.148;-1.656;2022-08-03T20:00:23;27.20;87.70
26964;DHT22;14521;48.148;-1.656;2022-08-03T20:03:49;27.20;87.60
26964;DHT22;14521;48.148;-1.656;2022-08-03T20:07:14;27.20;87.60
26964;DHT22;14521;48.148;-1.656;2022-08-03T20:10:43;27.20;87.60
26964;DHT22;14521;48.148;-1.656;2022-08-03T20:14:09;27.20;87.50
26964;DHT22;14521;48.148;-1.656;2022-08-03T20:17:34;27.20;87.60
26964;DHT22;14521;48.148;-1.656;2022-08-03T20:21:16;27.20;87.50
26964;DHT22;14521;48.148;-1.656;2022-08-03T20:24:46;27.20;87.50
26964;DHT22;14521;48.148;-1.656;2022-08-03T20:28:23;27.20;87.40
26964;DHT22;14521;48.148;-1.656;2022-08-03T20:31:47;27.20;87.40
26964;DHT22;14521;48.148;-1.656;2022-08-03T20:35:11;27.20;87.60
26964;DHT22;14521;48.148;-1.656;2022-08-03T20:38:34;27.20;87.60
26964;DHT22;14521;48.148;-1.656;2022-08-03T20:42:04;27.20;87.70
26964;DHT22;14521;48.148;-1.656;2022-08-03T20:45:27;27.20;87.50
26964;DHT22;14521;48.148;-1.656;2022-08-03T20:49:10;27.20;87.60
26964;DHT22;14521;48.148;-1.656;2022-08-03T20:52:34;27.20;87.60
26964;DHT22;14521;48.148;-1.656;2022-08-03T20:56:11;27.20;87.40
26964;DHT22;14521;48.148;-1.656;2022-08-03T20:59:36;27.20;87.40
26964;DHT22;14521;48.148;-1.656;2022-08-03T21:03:12;27.20;87.30
26964;DHT22;14521;48.148;-1.656;2022-08-03T21:06:48;27.20;87.20
26964;DHT22;14521;48.148;-1.656;2022-08-03T21:10:16;27.20;87.20
26964;DHT22;14521;48.148;-1.656;2022-08-03T21:13:45;27.20;87.10
26964;DHT22;14521;48.148;-1.656;2022-08-03T21:17:13;27.20;87.10
26964;DHT22;14521;48.148;-1.656;2022-08-03T21:20:56;27.20;87.10
26964;DHT22;14521;48.148;-1.656;2022-08-03T21:24:20;27.20;87.10
26964;DHT22;14521;48.148;-1.656;2022-08-03T21:27:46;27.20;87.10
26964;DHT22;14521;48.148;-1.656;2022-08-03T21:31:10;27.20;87.10
26964;DHT22;14521;48.148;-1.656;2022-08-03T21:34:34;27.20;87.10
26964;DHT22;14521;48.148;-1.656;2022-08-03T21:37:57;27.20;87.10
26964;DHT22;14521;48.148;-1.656;2022-08-03T21:41:38;27.20;87.10
26964;DHT22;14521;48.148;-1.656;2022-08-03T21:45:08;27.20;87.20
26964;DHT22;14521;48.148;-1.656;2022-08-03T21:48:40;27.20;87.10
26964;DHT22;14521;48.148;-1.656;2022-08-03T21:52:06;27.20;87.20